Time;durP1;ratioP1;P1;durP2;ratioP2;P2;SDS_P1;SDS_P2;PMS_P1;PMS_P2;Temp;Humidity;BMP_temperature;BMP_pressure;BME280_temperature;BME280_humidity;BME280_pressure;Samples;Min_cycle;Max_cycle;Signal;HPM_P1;HPM_P2
2021/12/18 00:01:18;;;;;;;25.17;16.05;;;5.10;85.30;;;;;;5091729;28;20192;-72
2021/12/18 00:03:45;;;;;;;23.23;15.25;;;5.10;85.30;;;;;;5092606;28;20201;-72
2021/12/18 00:06:13;;;;;;;26.13;17.08;;;5.10;85.60;;;;;;5091209;28;20276;-72
2021/12/18 00:08:41;;;;;;;24.20;16.20;;;5.10;85.50;;;;;;5092501;28;20639;-72
2021/12/18 00:11:09;;;;;;;24.75;17.13;;;5.10;85.50;;;;;;5090891;28;20190;-72
2021/12/18 00:13:37;;;;;;;24.90;15.20;;;5.10;85.50;;;;;;5092389;28;20280;-73
2021/12/18 00:16:05;;;;;;;22.33;14.20;;;5.10;85.40;;;;;;5091320;28;20192;-72
2021/12/18 00:18:34;;;;;;;24.50;16.50;;;5.20;85.10;;;;;;5092447;28;20192;-72
2021/12/18 00:21:01;;;;;;;27.33;15.80;;;5.10;85.00;;;;;;5091896;28;20280;-72
2021/12/18 00:23:28;;;;;;;26.75;16.65;;;5.10;85.20;;;;;;5092611;28;20274;-71
2021/12/18 00:25:57;;;;;;;27.35;18.00;;;5.10;85.20;;;;;;5091642;28;20273;-72
2021/12/18 00:28:24;;;;;;;26.83;16.65;;;5.10;85.30;;;;;;5091092;28;20747;-72
2021/12/18 00:30:51;;;;;;;26.77;17.30;;;5.10;85.10;;;;;;5092380;28;20197;-72
2021/12/18 00:33:18;;;;;;;25.98;15.93;;;5.10;84.50;;;;;;5091712;28;20288;-72
2021/12/18 00:35:45;;;;;;;26.00;15.60;;;5.10;85.00;;;;;;5091467;28;20598;-72
2021/12/18 00:38:12;;;;;;;27.10;16.00;;;5.10;84.70;;;;;;5091389;28;20611;-72
2021/12/18 00:40:46;;;;;;;26.00;17.33;;;5.00;84.80;;;;;;5091842;28;20586;-73
2021/12/18 00:43:25;;;;;;;24.20;15.90;;;4.90;85.10;;;;;;5091551;28;20192;-72
2021/12/18 00:45:53;;;;;;;26.92;15.73;;;4.90;85.80;;;;;;5092415;28;20204;-72
2021/12/18 00:48:20;;;;;;;27.58;16.25;;;4.90;86.00;;;;;;5091218;28;20266;-72
2021/12/18 00:50:48;;;;;;;30.83;17.80;;;4.90;86.10;;;;;;5092263;28;20293;-72
2021/12/18 00:53:15;;;;;;;27.92;16.48;;;4.90;85.90;;;;;;5091382;28;20239;-72
2021/12/18 00:55:42;;;;;;;26.08;15.52;;;4.90;86.00;;;;;;5093205;28;20225;-72
2021/12/18 00:58:10;;;;;;;30.05;17.02;;;4.90;86.10;;;;;;5095840;28;20189;-72
2021/12/18 01:00:41;;;;;;;25.73;16.33;;;4.90;85.90;;;;;;5095179;28;20413;-72
2021/12/18 01:03:15;;;;;;;25.58;14.88;;;4.90;86.10;;;;;;5095813;28;20599;-72
2021/12/18 01:05:43;;;;;;;23.02;14.70;;;4.90;86.20;;;;;;5095074;28;20258;-72
2021/12/18 01:08:10;;;;;;;28.17;15.00;;;4.90;86.10;;;;;;5095577;28;20224;-72
2021/12/18 01:10:53;;;;;;;26.83;17.85;;;4.90;85.40;;;;;;5093883;28;22043;-73
2021/12/18 01:13:25;;;;;;;24.38;16.20;;;4.90;85.50;;;;;;5095021;28;20189;-73
2021/12/18 01:15:56;;;;;;;25.52;14.15;;;4.90;85.60;;;;;;5095203;28;20197;-73
2021/12/18 01:23:52;;;;;;;27.15;15.93;;;5.00;85.60;;;;;;5094830;28;20200;-72
2021/12/18 01:26:19;;;;;;;30.15;15.70;;;4.90;85.30;;;;;;5095372;28;20581;-72
2021/12/18 01:28:46;;;;;;;22.17;13.80;;;4.90;85.20;;;;;;5094320;28;20296;-72
2021/12/18 01:31:14;;;;;;;26.25;15.50;;;4.90;85.00;;;;;;5095174;28;20280;-73
2021/12/18 01:33:41;;;;;;;26.80;15.45;;;4.80;85.30;;;;;;5094411;28;20656;-72
2021/12/18 01:36:08;;;;;;;25.20;15.88;;;4.80;85.60;;;;;;5094306;28;20259;-72
2021/12/18 01:38:35;;;;;;;24.38;15.93;;;4.80;85.90;;;;;;5094273;28;20217;-72
2021/12/18 01:41:03;;;;;;;23.52;15.63;;;4.80;86.00;;;;;;5094967;28;20539;-72
2021/12/18 01:46:29;;;;;;;25.63;14.88;;;4.80;85.50;;;;;;5094749;28;20300;-72
2021/12/18 01:51:48;;;;;;;23.77;13.10;;;4.80;85.70;;;;;;5093856;28;20406;-72
2021/12/18 01:54:15;;;;;;;23.27;13.55;;;4.80;86.10;;;;;;5094926;28;20185;-72
2021/12/18 01:56:43;;;;;;;29.45;16.50;;;4.80;86.00;;;;;;5094164;28;20268;-72
2021/12/18 01:59:10;;;;;;;25.33;15.77;;;4.80;86.10;;;;;;5094833;28;20224;-72
2021/12/18 02:01:36;;;;;;;26.75;14.52;;;4.80;86.00;;;;;;5094117;28;20671;-72
2021/12/18 02:04:05;;;;;;;25.27;14.43;;;4.90;86.20;;;;;;5094717;28;20654;-72
2021/12/18 02:06:33;;;;;;;28.45;16.05;;;4.90;85.10;;;;;;5093578;28;20224;-72
2021/12/18 02:09:00;;;;;;;23.50;15.13;;;4.90;84.90;;;;;;5094579;28;20632;-72
2021/12/18 02:11:31;;;;;;;23.95;14.73;;;4.90;85.20;;;;;;5092915;28;20185;-72
2021/12/18 02:14:34;;;;;;;26.63;15.95;;;4.90;85.00;;;;;;5094184;28;20273;-72
2021/12/18 02:19:59;;;;;;;29.33;16.08;;;4.90;85.10;;;;;;5093701;28;20273;-72
2021/12/18 02:22:28;;;;;;;26.67;15.32;;;4.80;85.30;;;;;;5094508;28;20275;-72
2021/12/18 02:24:55;;;;;;;24.63;14.38;;;4.70;85.70;;;;;;5093253;28;20198;-72
2021/12/18 02:27:22;;;;;;;24.98;14.80;;;4.70;85.70;;;;;;5094288;28;20205;-72
2021/12/18 02:29:49;;;;;;;26.67;12.90;;;4.70;85.40;;;;;;5093299;28;20213;-72
2021/12/18 02:32:20;;;;;;;22.60;14.38;;;4.70;85.80;;;;;;5094112;28;20639;-72
2021/12/18 02:34:53;;;;;;;23.45;13.88;;;4.70;86.00;;;;;;5093066;28;20983;-72
2021/12/18 02:37:38;;;;;;;23.05;14.25;;;4.80;86.10;;;;;;5093200;28;20674;-72
2021/12/18 02:42:52;;;;;;;22.05;13.43;;;4.70;84.90;;;;;;5093186;28;20197;-72
2021/12/18 02:45:21;;;;;;;20.55;12.30;;;4.70;85.30;;;;;;5093780;28;20193;-72
2021/12/18 02:47:48;;;;;;;23.75;15.05;;;4.70;85.20;;;;;;5092584;28;20421;-72
2021/12/18 02:50:15;;;;;;;24.55;14.60;;;4.70;85.30;;;;;;5093505;28;20193;-72
2021/12/18 02:52:44;;;;;;;21.05;11.88;;;4.70;85.40;;;;;;5093005;28;20220;-72
2021/12/18 02:55:11;;;;;;;22.25;13.05;;;4.60;85.60;;;;;;5093622;28;20194;-72
2021/12/18 02:57:38;;;;;;;22.50;13.90;;;4.60;86.10;;;;;;5091436;28;20196;-72
2021/12/18 03:00:06;;;;;;;25.42;13.73;;;4.50;86.20;;;;;;5093394;28;20644;-72
2021/12/18 03:02:38;;;;;;;22.00;13.88;;;4.50;86.60;;;;;;5093089;28;20221;-72
2021/12/18 03:05:09;;;;;;;25.35;13.50;;;4.50;86.80;;;;;;5093498;28;20212;-73
2021/12/18 03:07:36;;;;;;;25.15;14.60;;;4.40;86.90;;;;;;5092880;28;20196;-72
2021/12/18 03:24:07;;;;;;;24.45;13.88;;;4.50;87.40;;;;;;5093010;28;20194;-73
2021/12/18 03:26:35;;;;;;;29.20;12.88;;;4.50;87.20;;;;;;5093187;28;20189;-73
2021/12/18 03:29:02;;;;;;;23.92;13.00;;;4.50;87.30;;;;;;5092791;28;20613;-72
2021/12/18 03:31:33;;;;;;;25.10;14.77;;;4.40;87.20;;;;;;5093030;28;20289;-72
2021/12/18 03:34:01;;;;;;;19.90;11.95;;;4.40;87.50;;;;;;5092218;28;20216;-73
2021/12/18 03:36:28;;;;;;;24.17;13.55;;;4.40;87.50;;;;;;5092862;28;20632;-72
2021/12/18 03:38:56;;;;;;;19.30;13.00;;;4.40;87.40;;;;;;5092555;28;20193;-72
2021/12/18 03:41:23;;;;;;;24.00;14.05;;;4.40;87.50;;;;;;5092965;28;20581;-72
2021/12/18 03:43:51;;;;;;;21.17;13.43;;;4.40;87.30;;;;;;5092002;28;20220;-72
2021/12/18 03:46:18;;;;;;;28.42;14.00;;;4.40;87.10;;;;;;5093009;28;20690;-72
2021/12/18 03:48:45;;;;;;;25.17;14.18;;;4.30;87.30;;;;;;5092007;28;20630;-72
2021/12/18 03:51:12;;;;;;;23.92;13.77;;;4.30;87.60;;;;;;5092814;28;20272;-72
2021/12/18 03:53:39;;;;;;;21.90;12.68;;;4.30;87.80;;;;;;5091915;28;20181;-72
2021/12/18 03:56:06;;;;;;;27.02;14.20;;;4.30;88.00;;;;;;5092732;28;20248;-71
2021/12/18 03:58:33;;;;;;;21.25;13.32;;;4.30;87.90;;;;;;5091482;28;20250;-73
2021/12/18 04:01:02;;;;;;;20.50;11.88;;;4.30;87.80;;;;;;5092722;28;20300;-72
2021/12/18 04:03:29;;;;;;;20.05;11.00;;;4.30;87.80;;;;;;5091999;28;20278;-71
2021/12/18 04:05:56;;;;;;;23.38;13.60;;;4.30;87.60;;;;;;5092831;28;20220;-72
2021/12/18 04:08:23;;;;;;;23.50;12.63;;;4.40;87.60;;;;;;5092309;28;20544;-72
2021/12/18 04:10:50;;;;;;;20.77;12.38;;;4.40;87.30;;;;;;5092935;28;20280;-72
2021/12/18 04:13:17;;;;;;;28.35;12.30;;;4.40;88.00;;;;;;5092167;28;20198;-72
2021/12/18 04:15:44;;;;;;;23.02;12.70;;;4.40;87.40;;;;;;5092164;28;20265;-72
2021/12/18 04:18:12;;;;;;;21.88;11.85;;;4.40;87.60;;;;;;5092576;28;20239;-72
2021/12/18 04:20:39;;;;;;;23.15;12.98;;;4.40;87.30;;;;;;5092165;28;20196;-72
2021/12/18 04:23:06;;;;;;;22.63;12.02;;;4.50;86.80;;;;;;5092689;28;20301;-72
2021/12/18 04:25:33;;;;;;;21.85;11.55;;;4.40;86.60;;;;;;5091625;28;20594;-73
2021/12/18 04:28:00;;;;;;;24.80;12.63;;;4.40;86.80;;;;;;5092726;28;20272;-73
2021/12/18 04:30:27;;;;;;;21.58;11.38;;;4.30;87.00;;;;;;5095226;28;20190;-72
2021/12/18 04:32:54;;;;;;;22.20;11.50;;;4.30;86.40;;;;;;5096735;28;20656;-72
2021/12/18 04:35:22;;;;;;;19.15;10.50;;;4.30;86.50;;;;;;5095294;28;20304;-72
2021/12/18 04:37:49;;;;;;;21.73;11.13;;;4.30;86.70;;;;;;5096550;28;20595;-72
2021/12/18 04:40:16;;;;;;;20.55;11.27;;;4.30;86.40;;;;;;5095809;28;20242;-72
2021/12/18 04:42:43;;;;;;;19.67;10.68;;;4.30;86.40;;;;;;5096442;28;20276;-73
2021/12/18 04:45:10;;;;;;;21.65;11.38;;;4.20;86.50;;;;;;5095169;28;20272;-73
2021/12/18 04:47:37;;;;;;;19.23;11.35;;;4.10;86.70;;;;;;5096357;28;20721;-72
2021/12/18 04:50:05;;;;;;;15.23;9.93;;;4.10;86.70;;;;;;5095316;28;20298;-72
2021/12/18 04:52:34;;;;;;;18.83;10.30;;;4.10;86.80;;;;;;5096309;28;20189;-72
2021/12/18 04:55:01;;;;;;;19.00;9.52;;;4.00;86.40;;;;;;5095389;28;20242;-72
2021/12/18 04:57:28;;;;;;;16.63;9.77;;;4.10;86.30;;;;;;5096100;28;20229;-72
2021/12/18 04:59:55;;;;;;;19.48;10.55;;;4.10;85.90;;;;;;5095581;28;20302;-72
2021/12/18 05:02:25;;;;;;;23.83;12.63;;;4.10;86.00;;;;;;5096078;28;20190;-72
2021/12/18 05:04:52;;;;;;;19.00;10.90;;;4.00;86.00;;;;;;5095555;28;20216;-72
2021/12/18 05:07:19;;;;;;;21.95;10.77;;;4.00;86.20;;;;;;5095636;28;20211;-72
2021/12/18 05:09:48;;;;;;;18.80;9.90;;;4.00;86.40;;;;;;5095401;28;20213;-72
2021/12/18 05:12:15;;;;;;;24.20;11.25;;;4.00;86.40;;;;;;5094068;28;20231;-72
2021/12/18 05:14:42;;;;;;;21.77;10.40;;;4.00;85.90;;;;;;5095441;28;20193;-72
2021/12/18 05:17:09;;;;;;;17.85;9.82;;;4.00;86.00;;;;;;5095502;28;20190;-72
2021/12/18 05:19:36;;;;;;;22.08;11.27;;;4.00;85.40;;;;;;5094901;28;20611;-72
2021/12/18 05:22:04;;;;;;;19.55;11.20;;;4.00;85.40;;;;;;5095509;28;20197;-72
2021/12/18 05:24:31;;;;;;;20.90;9.38;;;4.00;85.60;;;;;;5095208;28;20549;-71
2021/12/18 05:27:00;;;;;;;18.33;11.60;;;4.00;85.80;;;;;;5095413;28;20214;-72
2021/12/18 05:29:27;;;;;;;20.63;10.32;;;4.00;85.80;;;;;;5094942;28;20206;-72
2021/12/18 05:31:55;;;;;;;17.70;11.05;;;4.00;86.00;;;;;;5095002;28;20232;-72
2021/12/18 05:34:24;;;;;;;21.50;10.50;;;4.00;85.80;;;;;;5093927;28;20220;-72
2021/12/18 05:39:33;;;;;;;21.75;10.85;;;4.00;85.60;;;;;;5094198;28;20186;-72
2021/12/18 05:42:01;;;;;;;19.77;10.75;;;4.00;85.80;;;;;;5094257;28;20196;-73
2021/12/18 05:44:28;;;;;;;22.42;11.30;;;4.00;85.80;;;;;;5094233;28;20268;-72
2021/12/18 05:46:56;;;;;;;21.52;10.70;;;4.00;86.00;;;;;;5095174;28;20288;-72
2021/12/18 05:49:23;;;;;;;19.40;10.57;;;3.90;86.20;;;;;;5094150;28;20213;-73
2021/12/18 05:51:50;;;;;;;18.95;11.05;;;3.90;86.90;;;;;;5094957;28;20615;-72
2021/12/18 05:54:18;;;;;;;20.75;9.40;;;3.90;86.20;;;;;;5094470;28;20188;-72
2021/12/18 05:56:45;;;;;;;15.07;9.27;;;4.00;86.00;;;;;;5094671;28;20223;-72
2021/12/18 05:59:13;;;;;;;15.77;8.45;;;4.00;85.60;;;;;;5094234;28;20247;-72
2021/12/18 06:01:41;;;;;;;18.20;10.27;;;4.00;85.60;;;;;;5074127;28;20537;-72
2021/12/18 06:04:09;;;;;;;20.10;10.18;;;4.00;85.60;;;;;;5082133;28;20545;-72
2021/12/18 06:06:35;;;;;;;18.70;11.15;;;4.00;85.10;;;;;;5094580;28;20277;-72
2021/12/18 06:09:02;;;;;;;16.73;8.95;;;4.00;85.30;;;;;;5093891;28;20387;-72
2021/12/18 06:11:31;;;;;;;20.20;10.75;;;4.00;84.70;;;;;;5094444;28;20281;-72
2021/12/18 06:13:58;;;;;;;19.30;10.23;;;4.00;84.80;;;;;;5093921;28;20189;-72
2021/12/18 06:16:26;;;;;;;16.27;9.00;;;4.00;84.50;;;;;;5094529;28;20556;-72
2021/12/18 06:18:53;;;;;;;21.52;10.50;;;4.00;84.70;;;;;;5093804;28;20250;-72
2021/12/18 06:21:22;;;;;;;14.52;8.50;;;4.00;84.70;;;;;;5094251;28;20280;-72
2021/12/18 06:23:51;;;;;;;19.90;9.73;;;4.00;84.60;;;;;;5093548;28;20595;-73
2021/12/18 06:26:22;;;;;;;18.70;9.32;;;3.90;84.10;;;;;;5094085;28;20197;-72
2021/12/18 06:28:49;;;;;;;15.38;8.50;;;3.90;84.30;;;;;;5093541;28;20273;-72
2021/12/18 06:31:16;;;;;;;15.10;7.90;;;3.90;84.10;;;;;;5094204;28;20197;-73
2021/12/18 06:33:45;;;;;;;14.88;8.65;;;3.90;83.80;;;;;;5093353;28;20272;-72
2021/12/18 06:36:11;;;;;;;14.48;8.27;;;3.90;83.90;;;;;;5092202;28;20301;-72
2021/12/18 06:38:38;;;;;;;11.60;6.80;;;3.90;83.70;;;;;;5094027;28;20190;-72
2021/12/18 06:41:05;;;;;;;16.35;8.43;;;3.80;83.00;;;;;;5093166;28;20185;-72
2021/12/18 06:43:32;;;;;;;16.67;8.93;;;3.90;82.70;;;;;;5093551;28;20721;-73
2021/12/18 06:45:59;;;;;;;13.93;7.75;;;3.80;82.70;;;;;;5093146;28;20197;-72
2021/12/18 06:48:26;;;;;;;16.55;8.65;;;3.70;83.00;;;;;;5094108;28;20272;-72
2021/12/18 06:50:54;;;;;;;13.48;7.13;;;3.70;83.10;;;;;;5092926;28;20300;-72
2021/12/18 06:53:21;;;;;;;11.25;7.00;;;3.60;82.80;;;;;;5092663;28;20632;-72
2021/12/18 06:55:49;;;;;;;13.25;7.53;;;3.60;82.90;;;;;;5093134;28;20265;-72
2021/12/18 06:58:16;;;;;;;12.48;7.53;;;3.60;82.90;;;;;;5093598;28;20236;-72
2021/12/18 07:00:43;;;;;;;16.60;8.10;;;3.60;83.00;;;;;;5093257;28;20239;-72
2021/12/18 07:03:10;;;;;;;15.88;7.07;;;3.60;83.10;;;;;;5092915;28;20186;-72
2021/12/18 07:05:37;;;;;;;13.85;8.50;;;3.60;83.60;;;;;;5092843;28;20229;-71
2021/12/18 07:08:06;;;;;;;13.75;8.70;;;3.60;82.80;;;;;;5093580;28;20705;-72
2021/12/18 07:10:33;;;;;;;15.13;7.97;;;3.60;82.40;;;;;;5092859;28;20236;-71
2021/12/18 07:13:00;;;;;;;13.90;7.60;;;3.50;82.40;;;;;;5093496;28;20262;-73
2021/12/18 07:15:27;;;;;;;12.82;6.13;;;3.50;82.50;;;;;;5093322;28;20284;-75
2021/12/18 07:17:54;;;;;;;14.52;9.38;;;3.40;82.70;;;;;;5092823;28;20204;-72
2021/12/18 07:20:21;;;;;;;14.45;8.35;;;3.40;82.80;;;;;;5092937;28;21544;-73
2021/12/18 07:22:48;;;;;;;14.48;8.20;;;3.40;82.80;;;;;;5092341;28;20186;-72
2021/12/18 07:25:16;;;;;;;14.10;8.60;;;3.40;83.50;;;;;;5093419;28;20651;-72
2021/12/18 07:27:43;;;;;;;11.23;6.68;;;3.40;83.50;;;;;;5092622;28;20209;-72
2021/12/18 07:30:12;;;;;;;15.68;9.20;;;3.40;83.20;;;;;;5093238;28;20659;-72
2021/12/18 07:32:39;;;;;;;12.98;8.13;;;3.40;82.80;;;;;;5091922;28;20604;-72
2021/12/18 07:35:07;;;;;;;12.57;7.80;;;3.40;82.40;;;;;;5092302;28;20578;-72
2021/12/18 07:37:35;;;;;;;13.98;7.43;;;3.40;82.80;;;;;;5092507;28;20264;-72
2021/12/18 07:40:02;;;;;;;14.18;7.80;;;3.40;83.10;;;;;;5093089;28;20193;-75
2021/12/18 07:42:31;;;;;;;13.95;6.72;;;3.40;83.00;;;;;;5092454;28;20235;-72
2021/12/18 07:44:59;;;;;;;18.10;9.10;;;3.40;82.80;;;;;;5093551;28;20207;-72
2021/12/18 07:47:25;;;;;;;11.23;7.10;;;3.50;82.80;;;;;;5092137;28;20185;-72
2021/12/18 07:49:53;;;;;;;12.13;7.60;;;3.60;82.50;;;;;;5092595;28;20647;-72
2021/12/18 07:52:21;;;;;;;14.52;7.78;;;3.60;82.60;;;;;;5092456;28;20189;-72
2021/12/18 07:54:48;;;;;;;17.45;8.85;;;3.60;82.50;;;;;;5093213;28;20186;-72
2021/12/18 07:57:15;;;;;;;11.90;7.05;;;3.60;82.20;;;;;;5092355;28;20197;-72
2021/12/18 07:59:43;;;;;;;13.38;6.85;;;3.70;81.60;;;;;;5092871;28;20626;-72
2021/12/18 08:02:11;;;;;;;14.32;7.55;;;3.70;81.30;;;;;;5092377;28;20271;-72
2021/12/18 08:04:38;;;;;;;12.93;7.85;;;3.60;80.80;;;;;;5094790;28;20193;-72
2021/12/18 08:07:05;;;;;;;13.98;8.48;;;3.60;81.20;;;;;;5096674;28;20681;-71
2021/12/18 08:09:32;;;;;;;13.60;7.82;;;3.60;81.50;;;;;;5096254;28;20248;-72
2021/12/18 08:11:59;;;;;;;11.82;6.80;;;3.50;81.80;;;;;;5096893;28;20279;-72
2021/12/18 08:14:26;;;;;;;12.82;8.68;;;3.50;82.00;;;;;;5096337;28;20620;-72
2021/12/18 08:16:54;;;;;;;12.75;6.60;;;3.60;82.00;;;;;;5096808;28;20284;-72
2021/12/18 08:19:21;;;;;;;14.05;7.30;;;3.60;81.90;;;;;;5095932;28;20205;-72
2021/12/18 08:21:48;;;;;;;10.10;6.70;;;3.70;82.10;;;;;;5096861;28;20193;-72
2021/12/18 08:24:15;;;;;;;13.02;7.38;;;3.70;81.90;;;;;;5094764;28;20209;-72
2021/12/18 08:26:42;;;;;;;15.52;8.85;;;3.70;81.70;;;;;;5096476;28;20276;-72
2021/12/18 08:29:09;;;;;;;14.48;9.50;;;3.70;81.60;;;;;;5095556;28;20185;-74
2021/12/18 08:31:36;;;;;;;18.38;8.88;;;3.70;81.10;;;;;;5096531;28;20322;-74
2021/12/18 08:34:04;;;;;;;12.25;7.28;;;3.80;81.60;;;;;;5095473;28;20243;-71
2021/12/18 08:36:31;;;;;;;11.65;7.35;;;3.80;81.70;;;;;;5096277;28;20329;-72
2021/12/18 08:38:58;;;;;;;14.40;8.07;;;3.90;80.90;;;;;;5095796;28;21786;-72
2021/12/18 08:41:27;;;;;;;14.48;7.90;;;3.90;80.20;;;;;;5096400;28;20194;-72
2021/12/18 08:43:54;;;;;;;15.40;9.13;;;3.90;80.00;;;;;;5095868;28;20785;-72
2021/12/18 08:46:21;;;;;;;10.23;7.07;;;3.90;80.10;;;;;;5096496;28;20292;-72
2021/12/18 08:48:48;;;;;;;12.05;8.15;;;3.90;80.50;;;;;;5095122;28;20280;-72
2021/12/18 08:51:16;;;;;;;11.25;7.03;;;3.90;80.20;;;;;;5096113;28;20712;-72
2021/12/18 08:53:43;;;;;;;15.15;8.25;;;3.90;80.50;;;;;;5094908;28;20276;-72
2021/12/18 08:56:10;;;;;;;11.02;7.63;;;4.00;80.30;;;;;;5096231;28;20193;-72
2021/12/18 08:58:37;;;;;;;10.73;6.60;;;4.00;80.10;;;;;;5095328;28;20552;-71
2021/12/18 09:01:04;;;;;;;15.27;7.53;;;4.00;80.00;;;;;;5096061;28;20223;-72
2021/12/18 09:03:31;;;;;;;11.38;6.88;;;4.00;79.20;;;;;;5095523;28;20551;-72
2021/12/18 09:05:58;;;;;;;12.40;8.13;;;3.90;78.60;;;;;;5095933;28;20276;-71
2021/12/18 09:08:27;;;;;;;12.32;7.82;;;3.80;78.00;;;;;;5095145;28;20181;-72
2021/12/18 09:10:54;;;;;;;14.27;8.10;;;3.80;79.60;;;;;;5095555;28;20249;-72
2021/12/18 09:13:21;;;;;;;10.57;7.00;;;3.80;80.10;;;;;;5078428;28;20220;-72
2021/12/18 09:15:48;;;;;;;17.73;9.68;;;3.80;80.00;;;;;;5073917;28;20233;-72
2021/12/18 09:18:15;;;;;;;14.05;8.40;;;3.80;80.30;;;;;;5090254;28;20544;-71
2021/12/18 09:20:44;;;;;;;16.70;9.18;;;3.90;80.80;;;;;;5074232;28;20190;-72
2021/12/18 09:23:13;;;;;;;10.82;7.57;;;3.90;80.60;;;;;;5076602;28;20210;-73
2021/12/18 09:25:41;;;;;;;11.57;7.35;;;4.10;81.20;;;;;;5094659;28;20202;-72
2021/12/18 09:28:08;;;;;;;14.27;7.88;;;4.10;80.40;;;;;;5105994;28;20279;-72
2021/12/18 09:30:35;;;;;;;12.63;7.25;;;4.20;80.00;;;;;;5096520;28;20212;-73
2021/12/18 09:33:03;;;;;;;10.45;7.30;;;4.30;79.00;;;;;;5099378;28;20236;-72
2021/12/18 09:35:30;;;;;;;10.50;6.53;;;4.30;78.80;;;;;;5098961;28;20259;-73
2021/12/18 09:37:58;;;;;;;13.07;8.20;;;4.30;78.50;;;;;;5091779;28;20283;-72
2021/12/18 09:40:24;;;;;;;11.68;7.40;;;4.30;78.40;;;;;;5099063;27;20209;-72
2021/12/18 09:42:53;;;;;;;15.15;8.20;;;4.40;78.40;;;;;;5104437;28;20735;-73
2021/12/18 09:45:20;;;;;;;12.88;7.60;;;4.50;77.90;;;;;;5096193;28;20280;-73
2021/12/18 09:47:47;;;;;;;9.63;5.35;;;4.50;77.20;;;;;;5102556;28;20292;-73
2021/12/18 09:50:16;;;;;;;10.82;6.32;;;4.50;77.10;;;;;;5099301;28;20233;-72
2021/12/18 09:52:46;;;;;;;10.25;6.57;;;4.50;77.50;;;;;;5103310;28;20285;-72
2021/12/18 09:55:15;;;;;;;11.40;6.50;;;4.50;77.00;;;;;;5099882;28;20283;-72
2021/12/18 09:57:49;;;;;;;11.35;6.57;;;4.50;77.50;;;;;;5098801;28;20237;-72
2021/12/18 10:00:23;;;;;;;12.20;7.93;;;4.50;77.30;;;;;;5102929;28;20192;-72
2021/12/18 10:02:50;;;;;;;12.70;6.75;;;4.50;77.20;;;;;;5089953;28;20224;-76
2021/12/18 10:05:33;;;;;;;11.98;7.00;;;4.60;77.80;;;;;;5088071;28;20231;-73
2021/12/18 10:08:12;;;;;;;12.38;6.15;;;4.60;77.70;;;;;;5093183;28;20686;-73
2021/12/18 10:10:57;;;;;;;13.18;7.22;;;4.60;77.30;;;;;;5095579;28;20304;-72
2021/12/18 10:13:24;;;;;;;9.45;5.68;;;4.60;76.00;;;;;;5095924;28;20237;-73
2021/12/18 10:16:08;;;;;;;11.00;7.40;;;4.50;76.50;;;;;;5097609;28;20196;-72
2021/12/18 10:18:35;;;;;;;16.45;7.65;;;4.50;77.10;;;;;;5096217;28;20640;-73
2021/12/18 10:21:12;;;;;;;12.65;7.68;;;4.60;76.90;;;;;;5100192;28;20621;-73
2021/12/18 10:23:41;;;;;;;14.40;7.90;;;4.50;77.30;;;;;;5095435;28;20213;-72
2021/12/18 10:26:08;;;;;;;12.07;6.78;;;4.50;76.80;;;;;;5094727;28;20280;-72
2021/12/18 10:28:46;;;;;;;10.57;6.60;;;4.60;77.10;;;;;;5096903;28;20193;-72
2021/12/18 10:31:15;;;;;;;11.80;7.20;;;4.60;77.20;;;;;;5100770;28;20289;-72
2021/12/18 10:33:42;;;;;;;11.40;6.97;;;4.60;77.20;;;;;;5091881;28;20722;-70
2021/12/18 10:36:15;;;;;;;12.70;8.65;;;4.70;77.10;;;;;;5092708;28;20217;-72
2021/12/18 10:38:47;;;;;;;15.45;7.35;;;4.70;76.70;;;;;;5098235;28;20198;-72
2021/12/18 10:41:23;;;;;;;13.20;6.88;;;4.70;76.70;;;;;;5093862;28;20196;-71
2021/12/18 10:44:00;;;;;;;12.57;7.57;;;4.70;77.10;;;;;;5098560;28;20297;-73
2021/12/18 10:46:30;;;;;;;9.15;6.55;;;4.80;76.40;;;;;;5097972;28;20583;-72
2021/12/18 10:49:00;;;;;;;13.05;7.05;;;4.80;75.90;;;;;;5099239;28;20520;-72
2021/12/18 10:51:29;;;;;;;8.07;5.15;;;4.80;75.70;;;;;;5099081;28;20230;-72
2021/12/18 10:54:01;;;;;;;12.88;6.25;;;4.80;75.50;;;;;;5095435;28;20248;-72
2021/12/18 10:56:36;;;;;;;8.80;6.22;;;4.80;75.10;;;;;;5090150;28;20193;-74
2021/12/18 10:59:06;;;;;;;10.27;6.00;;;4.80;76.00;;;;;;5095439;28;20292;-74
2021/12/18 11:01:37;;;;;;;11.65;6.78;;;4.90;75.80;;;;;;5098501;28;20213;-73
2021/12/18 11:04:06;;;;;;;11.45;7.20;;;4.90;75.80;;;;;;5089314;28;20199;-73
2021/12/18 11:06:35;;;;;;;14.75;7.45;;;4.90;75.50;;;;;;5098490;28;20198;-72
2021/12/18 11:09:06;;;;;;;11.60;6.22;;;5.00;75.50;;;;;;5099392;28;20270;-73
2021/12/18 11:14:36;;;;;;;10.77;6.75;;;5.00;74.30;;;;;;5094662;28;20216;-73
2021/12/18 11:17:07;;;;;;;11.40;6.82;;;4.90;73.50;;;;;;5097184;28;20191;-72
2021/12/18 11:19:35;;;;;;;10.85;6.80;;;4.90;73.80;;;;;;5098825;28;20505;-72
2021/12/18 11:22:05;;;;;;;11.93;7.25;;;4.90;74.70;;;;;;5082402;28;20201;-72
2021/12/18 11:24:45;;;;;;;9.90;6.05;;;4.90;73.80;;;;;;5083866;28;20292;-72
2021/12/18 11:27:16;;;;;;;11.02;6.22;;;4.90;74.20;;;;;;5092652;28;20193;-72
2021/12/18 11:29:50;;;;;;;12.98;8.52;;;4.90;74.10;;;;;;5088395;28;20201;-73
2021/12/18 11:32:21;;;;;;;10.73;7.85;;;4.90;74.20;;;;;;5101885;28;20228;-72
2021/12/18 11:34:50;;;;;;;10.70;6.32;;;4.90;74.30;;;;;;5097664;28;20744;-72
2021/12/18 11:37:19;;;;;;;10.10;5.55;;;4.90;74.20;;;;;;5094895;28;20602;-72
2021/12/18 11:39:48;;;;;;;10.40;6.30;;;4.90;74.20;;;;;;5101780;28;20217;-73
2021/12/18 11:42:16;;;;;;;8.80;5.75;;;4.90;74.10;;;;;;5097347;28;20197;-72
2021/12/18 11:44:48;;;;;;;11.35;6.53;;;4.90;73.70;;;;;;5088147;28;20186;-73
2021/12/18 11:47:30;;;;;;;10.88;6.53;;;5.00;74.20;;;;;;5098558;28;20194;-71
2021/12/18 11:49:59;;;;;;;10.82;7.03;;;5.00;73.90;;;;;;5096365;28;20718;-73
2021/12/18 11:52:27;;;;;;;10.20;6.70;;;5.00;73.80;;;;;;5094565;28;20227;-73
2021/12/18 11:54:56;;;;;;;8.85;5.85;;;5.00;73.20;;;;;;5090666;28;20622;-73
2021/12/18 11:57:44;;;;;;;10.68;6.80;;;5.00;73.80;;;;;;5094296;28;20207;-72
2021/12/18 12:00:38;;;;;;;10.82;5.97;;;5.00;73.40;;;;;;5091056;28;20581;-74
2021/12/18 12:03:08;;;;;;;10.27;6.13;;;5.00;73.40;;;;;;5092499;28;20262;-73
2021/12/18 12:05:39;;;;;;;10.18;6.40;;;5.00;73.50;;;;;;5096196;28;20190;-72
2021/12/18 12:08:30;;;;;;;11.60;6.90;;;5.00;73.30;;;;;;5094765;28;20583;-72
2021/12/18 12:11:24;;;;;;;8.70;5.55;;;5.00;72.50;;;;;;5095687;28;20680;-73
2021/12/18 12:14:17;;;;;;;9.85;5.22;;;5.00;72.60;;;;;;5098895;28;20197;-72
2021/12/18 12:17:04;;;;;;;7.20;4.80;;;5.00;72.50;;;;;;5098851;28;20233;-73
2021/12/18 12:19:53;;;;;;;14.52;7.00;;;4.90;72.00;;;;;;5088579;28;20201;-73
2021/12/18 12:22:47;;;;;;;8.10;5.32;;;4.90;72.10;;;;;;5091151;28;20186;-73
2021/12/18 12:25:17;;;;;;;9.68;5.97;;;4.80;71.60;;;;;;5097176;28;20196;-72
2021/12/18 12:27:45;;;;;;;10.68;5.57;;;4.80;71.90;;;;;;5094114;28;20600;-72
2021/12/18 12:30:26;;;;;;;9.23;5.10;;;4.80;72.20;;;;;;5097981;28;20305;-73
2021/12/18 12:32:56;;;;;;;16.65;6.45;;;4.70;71.70;;;;;;5099955;28;20225;-73
2021/12/18 12:35:25;;;;;;;12.80;7.53;;;4.70;72.90;;;;;;5093404;28;20236;-72
2021/12/18 12:37:53;;;;;;;13.18;7.47;;;4.60;72.80;;;;;;5095622;28;20299;-73
2021/12/18 12:40:34;;;;;;;9.95;7.00;;;4.70;72.70;;;;;;5101267;28;20207;-72
2021/12/18 12:43:20;;;;;;;9.98;5.70;;;4.60;73.20;;;;;;5090671;28;20200;-72
2021/12/18 12:45:50;;;;;;;11.20;6.40;;;4.60;73.00;;;;;;5086404;28;20188;-73
2021/12/18 12:48:17;;;;;;;9.02;5.07;;;4.70;73.50;;;;;;5094812;28;20197;-73
2021/12/18 12:50:55;;;;;;;9.65;6.15;;;4.80;73.00;;;;;;5093485;28;20194;-72
2021/12/18 12:53:23;;;;;;;8.38;5.63;;;4.80;72.70;;;;;;5092721;28;20639;-73
2021/12/18 12:55:52;;;;;;;9.10;6.18;;;4.80;72.20;;;;;;5096599;28;20245;-73
2021/12/18 12:58:21;;;;;;;10.88;7.40;;;4.80;71.70;;;;;;5102759;28;21030;-73
2021/12/18 13:01:00;;;;;;;10.70;6.00;;;4.70;71.80;;;;;;5093940;28;20257;-72
2021/12/18 13:03:36;;;;;;;11.57;6.65;;;4.70;71.60;;;;;;5085905;28;20203;-73
2021/12/18 13:06:17;;;;;;;10.18;5.65;;;4.60;72.30;;;;;;5099030;28;20196;-73
2021/12/18 13:08:47;;;;;;;10.07;5.75;;;4.60;71.80;;;;;;5098442;28;20205;-72
2021/12/18 13:11:19;;;;;;;7.75;6.03;;;4.60;72.40;;;;;;5090083;28;20225;-73
2021/12/18 13:13:47;;;;;;;9.00;5.68;;;4.50;72.70;;;;;;5088186;28;20209;-72
2021/12/18 13:16:16;;;;;;;12.48;7.78;;;4.50;72.90;;;;;;5092966;28;20209;-73
2021/12/18 13:18:44;;;;;;;9.93;6.68;;;4.50;73.30;;;;;;5090152;28;20663;-73
2021/12/18 13:21:23;;;;;;;12.50;8.00;;;4.50;73.40;;;;;;5083261;28;20190;-73
2021/12/18 13:23:55;;;;;;;15.05;8.10;;;4.50;74.00;;;;;;5095335;28;20192;-73
2021/12/18 13:26:30;;;;;;;11.57;7.57;;;4.60;74.10;;;;;;5089324;28;20299;-73
2021/12/18 13:29:01;;;;;;;13.52;6.90;;;4.60;73.50;;;;;;5097867;28;20192;-72
2021/12/18 13:31:31;;;;;;;15.82;9.95;;;4.60;72.90;;;;;;5096464;28;20235;-72